sensor_id;sensor_type;location;lat;lon;timestamp;P1;durP1;ratioP1;P2;durP2;ratioP2
14394;SDS011;7282;49.204;10.652;2022-08-20T00:01:02;44.60;;;35.17;;
14394;SDS011;7282;49.204;10.652;2022-08-20T00:03:31;45.80;;;34.60;;
14394;SDS011;7282;49.204;10.652;2022-08-20T00:06:08;48.13;;;35.53;;
14394;SDS011;7282;49.204;10.652;2022-08-20T00:08:35;46.00;;;34.13;;
14394;SDS011;7282;49.204;10.652;2022-08-20T00:11:04;44.20;;;33.63;;
14394;SDS011;7282;49.204;10.652;2022-08-20T00:13:33;45.40;;;35.10;;
14394;SDS011;7282;49.204;10.652;2022-08-20T00:15:59;48.73;;;35.87;;
14394;SDS011;7282;49.204;10.652;2022-08-20T00:18:27;47.67;;;35.07;;
14394;SDS011;7282;49.204;10.652;2022-08-20T00:20:54;46.87;;;33.10;;
14394;SDS011;7282;49.204;10.652;2022-08-20T00:23:21;40.53;;;32.07;;
14394;SDS011;7282;49.204;10.652;2022-08-20T00:25:49;44.97;;;33.90;;
14394;SDS011;7282;49.204;10.652;2022-08-20T00:28:16;42.57;;;34.03;;
14394;SDS011;7282;49.204;10.652;2022-08-20T00:30:43;42.03;;;32.63;;
14394;SDS011;7282;49.204;10.652;2022-08-20T00:33:12;39.90;;;30.83;;
14394;SDS011;7282;49.204;10.652;2022-08-20T00:35:40;42.97;;;31.97;;
14394;SDS011;7282;49.204;10.652;2022-08-20T00:38:08;41.30;;;32.07;;
14394;SDS011;7282;49.204;10.652;2022-08-20T00:40:39;37.23;;;29.40;;
14394;SDS011;7282;49.204;10.652;2022-08-20T00:43:10;38.43;;;30.83;;
14394;SDS011;7282;49.204;10.652;2022-08-20T00:45:34;41.67;;;32.27;;
14394;SDS011;7282;49.204;10.652;2022-08-20T00:48:01;40.20;;;30.53;;
14394;SDS011;7282;49.204;10.652;2022-08-20T00:50:31;44.00;;;32.67;;
14394;SDS011;7282;49.204;10.652;2022-08-20T00:52:59;41.30;;;31.27;;
14394;SDS011;7282;49.204;10.652;2022-08-20T00:55:28;38.50;;;29.40;;
14394;SDS011;7282;49.204;10.652;2022-08-20T00:57:56;39.70;;;29.17;;
14394;SDS011;7282;49.204;10.652;2022-08-20T01:00:33;40.80;;;30.23;;
14394;SDS011;7282;49.204;10.652;2022-08-20T01:02:55;40.53;;;30.63;;
14394;SDS011;7282;49.204;10.652;2022-08-20T01:05:22;44.57;;;31.67;;
14394;SDS011;7282;49.204;10.652;2022-08-20T01:07:52;44.73;;;32.73;;
14394;SDS011;7282;49.204;10.652;2022-08-20T01:10:25;44.93;;;32.60;;
14394;SDS011;7282;49.204;10.652;2022-08-20T01:12:48;38.00;;;29.83;;
14394;SDS011;7282;49.204;10.652;2022-08-20T01:15:16;35.70;;;28.20;;
14394;SDS011;7282;49.204;10.652;2022-08-20T01:17:45;35.50;;;27.70;;
14394;SDS011;7282;49.204;10.652;2022-08-20T01:20:13;44.73;;;32.07;;
14394;SDS011;7282;49.204;10.652;2022-08-20T01:25:41;39.73;;;31.53;;
14394;SDS011;7282;49.204;10.652;2022-08-20T01:28:09;40.43;;;32.07;;
14394;SDS011;7282;49.204;10.652;2022-08-20T01:30:36;35.87;;;28.30;;
14394;SDS011;7282;49.204;10.652;2022-08-20T01:33:03;39.53;;;30.20;;
14394;SDS011;7282;49.204;10.652;2022-08-20T01:35:33;41.63;;;32.80;;
14394;SDS011;7282;49.204;10.652;2022-08-20T01:37:58;41.00;;;30.87;;
14394;SDS011;7282;49.204;10.652;2022-08-20T01:40:34;43.93;;;33.50;;
14394;SDS011;7282;49.204;10.652;2022-08-20T01:42:56;43.57;;;31.97;;
14394;SDS011;7282;49.204;10.652;2022-08-20T01:45:23;45.30;;;33.90;;
14394;SDS011;7282;49.204;10.652;2022-08-20T01:47:52;43.17;;;32.37;;
14394;SDS011;7282;49.204;10.652;2022-08-20T01:50:20;39.10;;;30.80;;
14394;SDS011;7282;49.204;10.652;2022-08-20T01:52:51;41.40;;;30.00;;
14394;SDS011;7282;49.204;10.652;2022-08-20T01:55:16;46.90;;;35.00;;
14394;SDS011;7282;49.204;10.652;2022-08-20T01:57:43;46.33;;;35.20;;
14394;SDS011;7282;49.204;10.652;2022-08-20T02:00:12;49.43;;;36.27;;
14394;SDS011;7282;49.204;10.652;2022-08-20T02:02:39;50.67;;;36.87;;
14394;SDS011;7282;49.204;10.652;2022-08-20T02:05:09;45.03;;;34.60;;
14394;SDS011;7282;49.204;10.652;2022-08-20T02:07:35;40.07;;;32.33;;
14394;SDS011;7282;49.204;10.652;2022-08-20T02:10:04;48.43;;;36.03;;
14394;SDS011;7282;49.204;10.652;2022-08-20T02:12:31;49.13;;;35.47;;
14394;SDS011;7282;49.204;10.652;2022-08-20T02:14:58;47.57;;;35.13;;
14394;SDS011;7282;49.204;10.652;2022-08-20T02:17:25;49.53;;;37.50;;
14394;SDS011;7282;49.204;10.652;2022-08-20T02:19:53;41.47;;;32.73;;
14394;SDS011;7282;49.204;10.652;2022-08-20T02:22:55;48.03;;;36.53;;
14394;SDS011;7282;49.204;10.652;2022-08-20T02:24:55;45.73;;;35.43;;
14394;SDS011;7282;49.204;10.652;2022-08-20T02:27:22;50.93;;;37.57;;
14394;SDS011;7282;49.204;10.652;2022-08-20T02:29:49;53.90;;;37.90;;
14394;SDS011;7282;49.204;10.652;2022-08-20T02:32:16;55.57;;;41.80;;
14394;SDS011;7282;49.204;10.652;2022-08-20T02:34:43;48.07;;;36.97;;
14394;SDS011;7282;49.204;10.652;2022-08-20T02:37:10;50.97;;;36.97;;
14394;SDS011;7282;49.204;10.652;2022-08-20T02:39:38;59.57;;;42.90;;
14394;SDS011;7282;49.204;10.652;2022-08-20T02:42:06;62.50;;;42.50;;
14394;SDS011;7282;49.204;10.652;2022-08-20T02:44:32;53.83;;;39.23;;
14394;SDS011;7282;49.204;10.652;2022-08-20T02:47:00;57.53;;;41.77;;
14394;SDS011;7282;49.204;10.652;2022-08-20T02:49:27;60.03;;;43.13;;
14394;SDS011;7282;49.204;10.652;2022-08-20T02:51:54;61.10;;;42.87;;
14394;SDS011;7282;49.204;10.652;2022-08-20T02:54:20;63.13;;;45.70;;
14394;SDS011;7282;49.204;10.652;2022-08-20T02:56:47;64.67;;;45.33;;
14394;SDS011;7282;49.204;10.652;2022-08-20T02:59:14;65.53;;;50.10;;
14394;SDS011;7282;49.204;10.652;2022-08-20T03:01:41;64.20;;;45.37;;
14394;SDS011;7282;49.204;10.652;2022-08-20T03:04:07;59.90;;;46.10;;
14394;SDS011;7282;49.204;10.652;2022-08-20T03:06:34;62.37;;;46.33;;
14394;SDS011;7282;49.204;10.652;2022-08-20T03:09:01;57.63;;;43.40;;
14394;SDS011;7282;49.204;10.652;2022-08-20T03:11:30;59.50;;;43.63;;
14394;SDS011;7282;49.204;10.652;2022-08-20T03:13:57;61.13;;;44.93;;
14394;SDS011;7282;49.204;10.652;2022-08-20T03:16:24;68.67;;;46.87;;
14394;SDS011;7282;49.204;10.652;2022-08-20T03:18:50;84.37;;;52.97;;
14394;SDS011;7282;49.204;10.652;2022-08-20T03:21:17;70.23;;;49.90;;
14394;SDS011;7282;49.204;10.652;2022-08-20T03:23:44;90.17;;;54.80;;
14394;SDS011;7282;49.204;10.652;2022-08-20T03:26:12;76.47;;;51.07;;
14394;SDS011;7282;49.204;10.652;2022-08-20T03:28:39;70.47;;;49.20;;
14394;SDS011;7282;49.204;10.652;2022-08-20T03:31:06;75.40;;;50.73;;
14394;SDS011;7282;49.204;10.652;2022-08-20T03:33:33;81.80;;;52.97;;
14394;SDS011;7282;49.204;10.652;2022-08-20T03:36:00;80.43;;;51.93;;
14394;SDS011;7282;49.204;10.652;2022-08-20T03:38:27;74.23;;;49.20;;
14394;SDS011;7282;49.204;10.652;2022-08-20T03:40:53;69.50;;;49.60;;
14394;SDS011;7282;49.204;10.652;2022-08-20T03:43:20;71.70;;;51.80;;
14394;SDS011;7282;49.204;10.652;2022-08-20T03:45:47;75.00;;;53.47;;
14394;SDS011;7282;49.204;10.652;2022-08-20T03:48:16;78.10;;;53.50;;
14394;SDS011;7282;49.204;10.652;2022-08-20T03:50:42;88.73;;;56.57;;
14394;SDS011;7282;49.204;10.652;2022-08-20T03:53:09;71.77;;;50.87;;
14394;SDS011;7282;49.204;10.652;2022-08-20T03:55:37;78.30;;;54.50;;
14394;SDS011;7282;49.204;10.652;2022-08-20T03:58:05;89.43;;;59.13;;
14394;SDS011;7282;49.204;10.652;2022-08-20T04:00:37;73.80;;;53.40;;
14394;SDS011;7282;49.204;10.652;2022-08-20T04:03:01;80.00;;;55.53;;
14394;SDS011;7282;49.204;10.652;2022-08-20T04:05:28;80.10;;;55.97;;
14394;SDS011;7282;49.204;10.652;2022-08-20T04:07:56;75.50;;;54.73;;
14394;SDS011;7282;49.204;10.652;2022-08-20T04:10:24;75.80;;;54.00;;
14394;SDS011;7282;49.204;10.652;2022-08-20T04:12:51;74.00;;;53.50;;
14394;SDS011;7282;49.204;10.652;2022-08-20T04:15:18;80.80;;;56.53;;
14394;SDS011;7282;49.204;10.652;2022-08-20T04:17:46;78.90;;;54.50;;
14394;SDS011;7282;49.204;10.652;2022-08-20T04:20:15;82.77;;;55.63;;
14394;SDS011;7282;49.204;10.652;2022-08-20T04:22:43;77.70;;;55.20;;
14394;SDS011;7282;49.204;10.652;2022-08-20T04:25:12;96.80;;;59.97;;
14394;SDS011;7282;49.204;10.652;2022-08-20T04:27:39;76.80;;;53.47;;
14394;SDS011;7282;49.204;10.652;2022-08-20T04:30:07;71.90;;;52.63;;
14394;SDS011;7282;49.204;10.652;2022-08-20T04:32:34;74.67;;;54.23;;
14394;SDS011;7282;49.204;10.652;2022-08-20T04:35:05;83.20;;;56.87;;
14394;SDS011;7282;49.204;10.652;2022-08-20T04:37:32;77.87;;;53.57;;
14394;SDS011;7282;49.204;10.652;2022-08-20T04:40:03;86.40;;;58.30;;
14394;SDS011;7282;49.204;10.652;2022-08-20T04:42:48;74.40;;;52.47;;
14394;SDS011;7282;49.204;10.652;2022-08-20T04:45:15;86.60;;;57.17;;
14394;SDS011;7282;49.204;10.652;2022-08-20T04:47:41;79.07;;;56.67;;
14394;SDS011;7282;49.204;10.652;2022-08-20T04:50:09;83.13;;;55.83;;
14394;SDS011;7282;49.204;10.652;2022-08-20T04:52:36;83.47;;;58.30;;
14394;SDS011;7282;49.204;10.652;2022-08-20T04:55:04;82.43;;;56.83;;
14394;SDS011;7282;49.204;10.652;2022-08-20T04:57:31;91.10;;;60.70;;
14394;SDS011;7282;49.204;10.652;2022-08-20T04:59:58;87.27;;;60.13;;
14394;SDS011;7282;49.204;10.652;2022-08-20T05:02:25;81.93;;;56.80;;
14394;SDS011;7282;49.204;10.652;2022-08-20T05:04:52;83.43;;;57.17;;
14394;SDS011;7282;49.204;10.652;2022-08-20T05:07:19;87.60;;;59.00;;
14394;SDS011;7282;49.204;10.652;2022-08-20T05:09:46;76.37;;;55.70;;
14394;SDS011;7282;49.204;10.652;2022-08-20T05:12:12;82.93;;;55.87;;
14394;SDS011;7282;49.204;10.652;2022-08-20T05:14:40;80.37;;;54.73;;
14394;SDS011;7282;49.204;10.652;2022-08-20T05:17:07;82.27;;;57.53;;
14394;SDS011;7282;49.204;10.652;2022-08-20T05:19:34;78.40;;;56.27;;
14394;SDS011;7282;49.204;10.652;2022-08-20T05:22:05;72.30;;;53.17;;
14394;SDS011;7282;49.204;10.652;2022-08-20T05:24:32;70.63;;;52.73;;
14394;SDS011;7282;49.204;10.652;2022-08-20T05:26:59;69.20;;;52.57;;
14394;SDS011;7282;49.204;10.652;2022-08-20T05:29:26;74.53;;;51.30;;
14394;SDS011;7282;49.204;10.652;2022-08-20T05:31:53;67.90;;;50.97;;
14394;SDS011;7282;49.204;10.652;2022-08-20T05:34:21;68.63;;;50.70;;
14394;SDS011;7282;49.204;10.652;2022-08-20T05:36:50;66.27;;;48.97;;
14394;SDS011;7282;49.204;10.652;2022-08-20T05:39:19;66.33;;;46.57;;
14394;SDS011;7282;49.204;10.652;2022-08-20T05:41:46;63.33;;;48.03;;
14394;SDS011;7282;49.204;10.652;2022-08-20T05:44:14;61.83;;;48.10;;
14394;SDS011;7282;49.204;10.652;2022-08-20T05:46:42;65.13;;;48.17;;
14394;SDS011;7282;49.204;10.652;2022-08-20T05:49:10;58.83;;;46.17;;
14394;SDS011;7282;49.204;10.652;2022-08-20T05:51:38;53.77;;;43.93;;
14394;SDS011;7282;49.204;10.652;2022-08-20T05:54:05;56.80;;;44.07;;
14394;SDS011;7282;49.204;10.652;2022-08-20T05:56:32;56.13;;;44.00;;
14394;SDS011;7282;49.204;10.652;2022-08-20T05:58:59;54.53;;;43.67;;
14394;SDS011;7282;49.204;10.652;2022-08-20T06:01:30;53.87;;;42.93;;
14394;SDS011;7282;49.204;10.652;2022-08-20T06:03:57;53.63;;;42.93;;
14394;SDS011;7282;49.204;10.652;2022-08-20T06:06:42;53.77;;;40.67;;
14394;SDS011;7282;49.204;10.652;2022-08-20T06:09:09;47.70;;;40.00;;
14394;SDS011;7282;49.204;10.652;2022-08-20T06:11:36;48.47;;;41.77;;
14394;SDS011;7282;49.204;10.652;2022-08-20T06:14:02;50.47;;;40.37;;
14394;SDS011;7282;49.204;10.652;2022-08-20T06:16:29;46.70;;;39.17;;
14394;SDS011;7282;49.204;10.652;2022-08-20T06:18:57;44.53;;;38.57;;
14394;SDS011;7282;49.204;10.652;2022-08-20T06:21:24;44.70;;;37.83;;
14394;SDS011;7282;49.204;10.652;2022-08-20T06:23:50;45.80;;;38.73;;
14394;SDS011;7282;49.204;10.652;2022-08-20T06:26:17;45.80;;;37.93;;
14394;SDS011;7282;49.204;10.652;2022-08-20T06:28:44;41.33;;;36.17;;
14394;SDS011;7282;49.204;10.652;2022-08-20T06:31:11;41.53;;;34.80;;
14394;SDS011;7282;49.204;10.652;2022-08-20T06:33:37;42.40;;;35.27;;
14394;SDS011;7282;49.204;10.652;2022-08-20T06:36:04;38.93;;;34.50;;
14394;SDS011;7282;49.204;10.652;2022-08-20T06:38:32;43.80;;;35.97;;
14394;SDS011;7282;49.204;10.652;2022-08-20T06:40:58;41.47;;;35.40;;
14394;SDS011;7282;49.204;10.652;2022-08-20T06:43:25;38.83;;;33.87;;
14394;SDS011;7282;49.204;10.652;2022-08-20T06:45:52;36.50;;;32.50;;
14394;SDS011;7282;49.204;10.652;2022-08-20T06:48:20;40.60;;;34.80;;
14394;SDS011;7282;49.204;10.652;2022-08-20T06:50:47;38.50;;;32.93;;
14394;SDS011;7282;49.204;10.652;2022-08-20T06:53:15;38.33;;;33.97;;
14394;SDS011;7282;49.204;10.652;2022-08-20T06:55:43;35.17;;;30.67;;
14394;SDS011;7282;49.204;10.652;2022-08-20T06:58:11;35.07;;;30.60;;
14394;SDS011;7282;49.204;10.652;2022-08-20T07:00:38;31.53;;;28.23;;
14394;SDS011;7282;49.204;10.652;2022-08-20T07:03:07;32.63;;;29.13;;
14394;SDS011;7282;49.204;10.652;2022-08-20T07:05:36;32.03;;;28.67;;
14394;SDS011;7282;49.204;10.652;2022-08-20T07:08:03;32.97;;;28.00;;
14394;SDS011;7282;49.204;10.652;2022-08-20T07:10:30;28.57;;;25.13;;
14394;SDS011;7282;49.204;10.652;2022-08-20T07:12:57;28.03;;;24.97;;
14394;SDS011;7282;49.204;10.652;2022-08-20T07:15:25;30.37;;;26.83;;
14394;SDS011;7282;49.204;10.652;2022-08-20T07:17:56;29.80;;;26.23;;
14394;SDS011;7282;49.204;10.652;2022-08-20T07:20:21;27.57;;;24.70;;
14394;SDS011;7282;49.204;10.652;2022-08-20T07:22:47;26.87;;;24.07;;
14394;SDS011;7282;49.204;10.652;2022-08-20T07:25:16;27.00;;;24.07;;
14394;SDS011;7282;49.204;10.652;2022-08-20T07:27:43;25.87;;;23.17;;
14394;SDS011;7282;49.204;10.652;2022-08-20T07:30:12;26.03;;;23.33;;
14394;SDS011;7282;49.204;10.652;2022-08-20T07:32:57;27.87;;;23.60;;
14394;SDS011;7282;49.204;10.652;2022-08-20T07:35:23;23.33;;;20.97;;
14394;SDS011;7282;49.204;10.652;2022-08-20T07:37:50;23.67;;;21.17;;
14394;SDS011;7282;49.204;10.652;2022-08-20T07:40:21;23.60;;;21.00;;
14394;SDS011;7282;49.204;10.652;2022-08-20T07:42:48;23.37;;;20.33;;
14394;SDS011;7282;49.204;10.652;2022-08-20T07:45:15;24.43;;;21.87;;
14394;SDS011;7282;49.204;10.652;2022-08-20T07:47:44;22.60;;;19.47;;
14394;SDS011;7282;49.204;10.652;2022-08-20T07:50:12;22.80;;;20.40;;
14394;SDS011;7282;49.204;10.652;2022-08-20T07:52:39;20.83;;;18.73;;
14394;SDS011;7282;49.204;10.652;2022-08-20T07:55:07;23.03;;;20.57;;
14394;SDS011;7282;49.204;10.652;2022-08-20T07:57:35;21.63;;;18.87;;
14394;SDS011;7282;49.204;10.652;2022-08-20T08:00:03;23.23;;;20.63;;
14394;SDS011;7282;49.204;10.652;2022-08-20T08:02:30;21.93;;;19.63;;
14394;SDS011;7282;49.204;10.652;2022-08-20T08:04:57;21.60;;;19.30;;
14394;SDS011;7282;49.204;10.652;2022-08-20T08:07:23;24.37;;;21.57;;
14394;SDS011;7282;49.204;10.652;2022-08-20T08:09:51;25.00;;;19.40;;
14394;SDS011;7282;49.204;10.652;2022-08-20T08:12:19;23.67;;;19.60;;
14394;SDS011;7282;49.204;10.652;2022-08-20T08:14:46;21.90;;;19.70;;
14394;SDS011;7282;49.204;10.652;2022-08-20T08:17:13;22.07;;;19.63;;
14394;SDS011;7282;49.204;10.652;2022-08-20T08:19:42;22.23;;;19.87;;
14394;SDS011;7282;49.204;10.652;2022-08-20T08:22:10;23.40;;;20.90;;
14394;SDS011;7282;49.204;10.652;2022-08-20T08:24:38;20.93;;;18.63;;
14394;SDS011;7282;49.204;10.652;2022-08-20T08:27:05;20.53;;;18.47;;
14394;SDS011;7282;49.204;10.652;2022-08-20T08:29:34;21.93;;;19.73;;
14394;SDS011;7282;49.204;10.652;2022-08-20T08:32:01;22.47;;;20.03;;
14394;SDS011;7282;49.204;10.652;2022-08-20T08:34:29;21.93;;;19.73;;
14394;SDS011;7282;49.204;10.652;2022-08-20T08:36:56;21.63;;;19.37;;
14394;SDS011;7282;49.204;10.652;2022-08-20T08:39:23;20.43;;;18.33;;
14394;SDS011;7282;49.204;10.652;2022-08-20T08:41:50;22.30;;;19.20;;
14394;SDS011;7282;49.204;10.652;2022-08-20T08:44:24;21.47;;;19.33;;
14394;SDS011;7282;49.204;10.652;2022-08-20T08:46:57;21.87;;;19.57;;
14394;SDS011;7282;49.204;10.652;2022-08-20T08:49:27;22.00;;;19.47;;
14394;SDS011;7282;49.204;10.652;2022-08-20T08:51:58;20.80;;;18.77;;
14394;SDS011;7282;49.204;10.652;2022-08-20T08:54:26;23.93;;;21.43;;
14394;SDS011;7282;49.204;10.652;2022-08-20T08:56:55;22.33;;;19.97;;
14394;SDS011;7282;49.204;10.652;2022-08-20T08:59:21;22.80;;;20.13;;
14394;SDS011;7282;49.204;10.652;2022-08-20T09:01:50;21.60;;;19.43;;
14394;SDS011;7282;49.204;10.652;2022-08-20T09:04:20;21.53;;;19.23;;
14394;SDS011;7282;49.204;10.652;2022-08-20T09:06:47;21.07;;;18.87;;
14394;SDS011;7282;49.204;10.652;2022-08-20T09:09:17;21.43;;;19.13;;
14394;SDS011;7282;49.204;10.652;2022-08-20T09:11:44;20.60;;;18.60;;
14394;SDS011;7282;49.204;10.652;2022-08-20T09:14:10;20.43;;;18.40;;
14394;SDS011;7282;49.204;10.652;2022-08-20T09:16:37;19.67;;;17.77;;
14394;SDS011;7282;49.204;10.652;2022-08-20T09:19:04;20.67;;;18.00;;
14394;SDS011;7282;49.204;10.652;2022-08-20T09:21:31;19.40;;;17.40;;
14394;SDS011;7282;49.204;10.652;2022-08-20T09:23:57;20.50;;;18.23;;
14394;SDS011;7282;49.204;10.652;2022-08-20T09:26:24;19.27;;;17.20;;
14394;SDS011;7282;49.204;10.652;2022-08-20T09:28:51;18.80;;;16.80;;
14394;SDS011;7282;49.204;10.652;2022-08-20T09:31:18;19.53;;;16.40;;
14394;SDS011;7282;49.204;10.652;2022-08-20T09:33:44;18.30;;;16.40;;
14394;SDS011;7282;49.204;10.652;2022-08-20T09:36:11;18.53;;;16.63;;
14394;SDS011;7282;49.204;10.652;2022-08-20T09:38:38;17.77;;;15.90;;
14394;SDS011;7282;49.204;10.652;2022-08-20T09:41:04;17.80;;;15.90;;
14394;SDS011;7282;49.204;10.652;2022-08-20T09:43:31;17.10;;;15.37;;
14394;SDS011;7282;49.204;10.652;2022-08-20T09:45:58;16.30;;;14.60;;
14394;SDS011;7282;49.204;10.652;2022-08-20T09:48:24;16.03;;;14.43;;
14394;SDS011;7282;49.204;10.652;2022-08-20T09:50:51;17.70;;;15.90;;
14394;SDS011;7282;49.204;10.652;2022-08-20T09:53:18;18.00;;;14.73;;
14394;SDS011;7282;49.204;10.652;2022-08-20T09:55:50;14.70;;;13.30;;
14394;SDS011;7282;49.204;10.652;2022-08-20T09:58:18;16.17;;;14.57;;
14394;SDS011;7282;49.204;10.652;2022-08-20T10:00:46;16.90;;;15.10;;
14394;SDS011;7282;49.204;10.652;2022-08-20T10:03:13;17.73;;;15.47;;
14394;SDS011;7282;49.204;10.652;2022-08-20T10:05:39;15.60;;;13.70;;
14394;SDS011;7282;49.204;10.652;2022-08-20T10:08:07;15.83;;;14.33;;
14394;SDS011;7282;49.204;10.652;2022-08-20T10:10:34;16.67;;;14.97;;
14394;SDS011;7282;49.204;10.652;2022-08-20T10:13:01;15.53;;;13.77;;
14394;SDS011;7282;49.204;10.652;2022-08-20T10:15:28;16.93;;;15.23;;
14394;SDS011;7282;49.204;10.652;2022-08-20T10:17:55;16.33;;;14.73;;
14394;SDS011;7282;49.204;10.652;2022-08-20T10:20:24;17.20;;;15.27;;
14394;SDS011;7282;49.204;10.652;2022-08-20T10:22:51;16.43;;;14.80;;
14394;SDS011;7282;49.204;10.652;2022-08-20T10:25:18;16.10;;;14.40;;
14394;SDS011;7282;49.204;10.652;2022-08-20T10:27:45;16.07;;;14.37;;
14394;SDS011;7282;49.204;10.652;2022-08-20T10:30:12;15.93;;;14.23;;
14394;SDS011;7282;49.204;10.652;2022-08-20T10:32:39;17.00;;;15.20;;
14394;SDS011;7282;49.204;10.652;2022-08-20T10:35:07;18.50;;;16.17;;
14394;SDS011;7282;49.204;10.652;2022-08-20T10:37:34;17.13;;;14.67;;
14394;SDS011;7282;49.204;10.652;2022-08-20T10:40:01;16.30;;;14.70;;
14394;SDS011;7282;49.204;10.652;2022-08-20T10:42:28;17.70;;;14.60;;
14394;SDS011;7282;49.204;10.652;2022-08-20T10:44:55;15.20;;;13.77;;
14394;SDS011;7282;49.204;10.652;2022-08-20T10:47:25;16.23;;;14.63;;
14394;SDS011;7282;49.204;10.652;2022-08-20T10:49:53;15.87;;;14.27;;
14394;SDS011;7282;49.204;10.652;2022-08-20T10:52:20;16.87;;;13.87;;
14394;SDS011;7282;49.204;10.652;2022-08-20T10:54:47;14.83;;;13.07;;
14394;SDS011;7282;49.204;10.652;2022-08-20T10:57:15;15.03;;;13.47;;
14394;SDS011;7282;49.204;10.652;2022-08-20T10:59:43;14.30;;;12.80;;
14394;SDS011;7282;49.204;10.652;2022-08-20T11:02:10;15.20;;;13.77;;
14394;SDS011;7282;49.204;10.652;2022-08-20T11:04:36;14.87;;;13.37;;
14394;SDS011;7282;49.204;10.652;2022-08-20T11:07:16;15.13;;;13.73;;
14394;SDS011;7282;49.204;10.652;2022-08-20T11:09:43;13.50;;;12.10;;
14394;SDS011;7282;49.204;10.652;2022-08-20T11:12:10;14.40;;;12.80;;
14394;SDS011;7282;49.204;10.652;2022-08-20T11:14:37;13.17;;;11.90;;
14394;SDS011;7282;49.204;10.652;2022-08-20T11:17:04;13.17;;;11.47;;
14394;SDS011;7282;49.204;10.652;2022-08-20T11:19:31;11.73;;;10.73;;
14394;SDS011;7282;49.204;10.652;2022-08-20T11:21:58;12.47;;;11.27;;
14394;SDS011;7282;49.204;10.652;2022-08-20T11:24:25;12.47;;;11.20;;
14394;SDS011;7282;49.204;10.652;2022-08-20T11:26:51;11.73;;;10.60;;
14394;SDS011;7282;49.204;10.652;2022-08-20T11:29:18;12.03;;;10.93;;
14394;SDS011;7282;49.204;10.652;2022-08-20T11:31:47;10.93;;;9.87;;
14394;SDS011;7282;49.204;10.652;2022-08-20T11:34:14;10.23;;;9.33;;
14394;SDS011;7282;49.204;10.652;2022-08-20T11:36:41;10.20;;;9.20;;
14394;SDS011;7282;49.204;10.652;2022-08-20T11:39:08;10.50;;;9.43;;
14394;SDS011;7282;49.204;10.652;2022-08-20T11:41:34;11.87;;;9.90;;
14394;SDS011;7282;49.204;10.652;2022-08-20T11:44:01;11.63;;;10.53;;
14394;SDS011;7282;49.204;10.652;2022-08-20T11:46:28;10.93;;;9.80;;
14394;SDS011;7282;49.204;10.652;2022-08-20T11:48:54;10.90;;;9.73;;
14394;SDS011;7282;49.204;10.652;2022-08-20T11:51:21;10.47;;;9.57;;
14394;SDS011;7282;49.204;10.652;2022-08-20T11:53:48;8.20;;;7.43;;
14394;SDS011;7282;49.204;10.652;2022-08-20T11:56:15;7.70;;;6.93;;
14394;SDS011;7282;49.204;10.652;2022-08-20T11:58:42;7.30;;;6.53;;
14394;SDS011;7282;49.204;10.652;2022-08-20T12:01:11;8.43;;;7.63;;
14394;SDS011;7282;49.204;10.652;2022-08-20T12:03:37;7.83;;;7.17;;
14394;SDS011;7282;49.204;10.652;2022-08-20T12:06:04;7.00;;;6.40;;
14394;SDS011;7282;49.204;10.652;2022-08-20T12:08:31;5.30;;;4.90;;
14394;SDS011;7282;49.204;10.652;2022-08-20T12:10:58;4.80;;;4.30;;
14394;SDS011;7282;49.204;10.652;2022-08-20T12:13:27;5.23;;;4.73;;
14394;SDS011;7282;49.204;10.652;2022-08-20T12:15:54;5.67;;;5.17;;
14394;SDS011;7282;49.204;10.652;2022-08-20T12:18:21;4.63;;;4.23;;
14394;SDS011;7282;49.204;10.652;2022-08-20T12:20:48;4.40;;;4.00;;
14394;SDS011;7282;49.204;10.652;2022-08-20T12:23:15;4.80;;;4.40;;
14394;SDS011;7282;49.204;10.652;2022-08-20T12:25:41;4.47;;;4.07;;
14394;SDS011;7282;49.204;10.652;2022-08-20T12:28:10;5.40;;;4.90;;
14394;SDS011;7282;49.204;10.652;2022-08-20T12:30:37;5.40;;;4.83;;
14394;SDS011;7282;49.204;10.652;2022-08-20T12:33:03;4.70;;;4.30;;
14394;SDS011;7282;49.204;10.652;2022-08-20T12:35:30;5.40;;;4.90;;
14394;SDS011;7282;49.204;10.652;2022-08-20T12:37:57;4.77;;;4.37;;
14394;SDS011;7282;49.204;10.652;2022-08-20T12:40:26;4.47;;;4.07;;
14394;SDS011;7282;49.204;10.652;2022-08-20T12:42:53;5.33;;;4.83;;
14394;SDS011;7282;49.204;10.652;2022-08-20T12:45:20;6.50;;;5.90;;
14394;SDS011;7282;49.204;10.652;2022-08-20T12:47:47;6.47;;;5.80;;
14394;SDS011;7282;49.204;10.652;2022-08-20T12:50:19;5.27;;;4.87;;
14394;SDS011;7282;49.204;10.652;2022-08-20T12:52:43;4.73;;;4.33;;
14394;SDS011;7282;49.204;10.652;2022-08-20T12:55:11;4.23;;;3.83;;
14394;SDS011;7282;49.204;10.652;2022-08-20T12:57:39;3.20;;;3.00;;
14394;SDS011;7282;49.204;10.652;2022-08-20T13:00:08;4.50;;;4.10;;
14394;SDS011;7282;49.204;10.652;2022-08-20T13:02:36;4.00;;;3.67;;
14394;SDS011;7282;49.204;10.652;2022-08-20T13:05:04;3.50;;;3.20;;
14394;SDS011;7282;49.204;10.652;2022-08-20T13:07:31;2.43;;;2.30;;
14394;SDS011;7282;49.204;10.652;2022-08-20T13:09:58;1.97;;;1.87;;
14394;SDS011;7282;49.204;10.652;2022-08-20T13:12:25;2.30;;;2.10;;
14394;SDS011;7282;49.204;10.652;2022-08-20T13:14:52;2.20;;;2.07;;
14394;SDS011;7282;49.204;10.652;2022-08-20T13:17:19;2.30;;;2.20;;
14394;SDS011;7282;49.204;10.652;2022-08-20T13:19:46;3.13;;;2.60;;
14394;SDS011;7282;49.204;10.652;2022-08-20T13:22:13;3.40;;;2.63;;
14394;SDS011;7282;49.204;10.652;2022-08-20T13:24:40;3.10;;;2.80;;
14394;SDS011;7282;49.204;10.652;2022-08-20T13:27:08;2.57;;;2.37;;
14394;SDS011;7282;49.204;10.652;2022-08-20T13:29:36;2.93;;;2.73;;
14394;SDS011;7282;49.204;10.652;2022-08-20T13:32:03;2.90;;;2.70;;
14394;SDS011;7282;49.204;10.652;2022-08-20T13:34:30;3.20;;;2.90;;
14394;SDS011;7282;49.204;10.652;2022-08-20T13:36:57;3.20;;;2.90;;
14394;SDS011;7282;49.204;10.652;2022-08-20T13:39:23;2.90;;;2.70;;
14394;SDS011;7282;49.204;10.652;2022-08-20T13:41:50;5.47;;;4.97;;
14394;SDS011;7282;49.204;10.652;2022-08-20T13:44:17;5.87;;;5.47;;
14394;SDS011;7282;49.204;10.652;2022-08-20T13:46:44;5.87;;;5.37;;
14394;SDS011;7282;49.204;10.652;2022-08-20T13:49:12;5.53;;;5.10;;
14394;SDS011;7282;49.204;10.652;2022-08-20T13:51:38;6.23;;;4.30;;
14394;SDS011;7282;49.204;10.652;2022-08-20T13:54:05;3.93;;;3.50;;
14394;SDS011;7282;49.204;10.652;2022-08-20T13:56:32;3.70;;;3.40;;
14394;SDS011;7282;49.204;10.652;2022-08-20T13:58:58;3.47;;;3.17;;
14394;SDS011;7282;49.204;10.652;2022-08-20T14:01:25;3.67;;;3.37;;
14394;SDS011;7282;49.204;10.652;2022-08-20T14:03:52;2.87;;;2.60;;
14394;SDS011;7282;49.204;10.652;2022-08-20T14:06:19;2.70;;;2.50;;
14394;SDS011;7282;49.204;10.652;2022-08-20T14:08:46;2.60;;;2.40;;
14394;SDS011;7282;49.204;10.652;2022-08-20T14:11:12;2.50;;;2.30;;
14394;SDS011;7282;49.204;10.652;2022-08-20T14:13:39;2.40;;;2.20;;
14394;SDS011;7282;49.204;10.652;2022-08-20T14:16:06;3.10;;;2.80;;
14394;SDS011;7282;49.204;10.652;2022-08-20T14:18:35;3.00;;;2.60;;
14394;SDS011;7282;49.204;10.652;2022-08-20T14:21:02;2.50;;;2.30;;
14394;SDS011;7282;49.204;10.652;2022-08-20T14:23:29;3.03;;;2.63;;
14394;SDS011;7282;49.204;10.652;2022-08-20T14:25:55;2.70;;;2.50;;
14394;SDS011;7282;49.204;10.652;2022-08-20T14:31:23;3.33;;;2.50;;
14394;SDS011;7282;49.204;10.652;2022-08-20T14:33:49;3.27;;;2.33;;